createdAt,value
2023-02-04T00:02:04.208Z,1.38
2023-02-04T00:04:30.769Z,2.25
2023-02-04T00:06:57.302Z,0.80
2023-02-04T00:09:23.866Z,1.70
2023-02-04T00:11:50.466Z,1.38
2023-02-04T00:14:17.087Z,1.95
2023-02-04T00:16:43.700Z,1.45
2023-02-04T00:19:10.249Z,1.30
2023-02-04T00:21:36.816Z,1.17
2023-02-04T00:24:04.022Z,1.73
2023-02-04T00:26:30.627Z,2.42
2023-02-04T00:28:57.217Z,1.50
2023-02-04T00:31:24.023Z,1.65
2023-02-04T00:33:50.653Z,0.98
2023-02-04T00:36:17.200Z,1.80
2023-02-04T00:38:43.786Z,0.85
2023-02-04T00:41:10.383Z,1.30
2023-02-04T00:43:36.934Z,1.20
2023-02-04T00:46:03.790Z,0.90
2023-02-04T00:48:30.367Z,1.27
2023-02-04T00:50:56.974Z,1.33
2023-02-04T00:53:23.615Z,1.65
2023-02-04T00:55:50.253Z,1.20
2023-02-04T00:58:16.834Z,2.58
2023-02-04T01:00:43.534Z,1.10
2023-02-04T01:03:10.250Z,1.70
2023-02-04T01:05:37.131Z,0.60
2023-02-04T01:08:03.825Z,0.98
2023-02-04T01:10:31.096Z,1.00
2023-02-04T01:12:57.954Z,1.05
2023-02-04T01:15:24.509Z,1.23
2023-02-04T01:17:51.082Z,2.28
2023-02-04T01:20:17.780Z,3.35
2023-02-04T01:22:44.386Z,1.88
2023-02-04T01:25:11.022Z,1.33
2023-02-04T01:27:37.796Z,0.60
2023-02-04T01:30:05.630Z,0.68
2023-02-04T01:32:32.181Z,1.02
2023-02-04T01:34:58.806Z,1.83
2023-02-04T01:37:25.572Z,1.42
2023-02-04T01:39:52.138Z,1.95
2023-02-04T01:42:18.952Z,1.00
2023-02-04T01:44:45.680Z,1.00
2023-02-04T01:47:12.429Z,0.65
2023-02-04T01:49:39.086Z,2.45
2023-02-04T01:52:05.969Z,1.10
2023-02-04T01:54:32.680Z,1.77
2023-02-04T01:56:59.488Z,1.13
2023-02-04T01:59:27.360Z,2.00
2023-02-04T02:01:54.644Z,0.85
2023-02-04T02:04:32.219Z,1.30
2023-02-04T02:07:02.026Z,1.02
2023-02-04T02:09:30.563Z,0.82
2023-02-04T02:11:57.787Z,0.98
2023-02-04T02:14:24.471Z,1.75
2023-02-04T02:16:51.195Z,0.95
2023-02-04T02:19:28.555Z,1.05
2023-02-04T02:22:18.114Z,1.00
2023-02-04T02:24:44.707Z,0.98
2023-02-04T02:27:12.512Z,0.57
2023-02-04T02:29:42.124Z,0.70
2023-02-04T02:32:10.490Z,0.77
2023-02-04T02:34:39.257Z,0.85
2023-02-04T02:37:07.032Z,1.20
2023-02-04T02:39:33.598Z,1.42
2023-02-04T02:42:00.370Z,1.08
2023-02-04T02:44:27.712Z,0.80
2023-02-04T02:46:55.016Z,1.13
2023-02-04T02:49:22.783Z,0.80
2023-02-04T02:51:49.660Z,1.10
2023-02-04T02:54:29.348Z,0.95
2023-02-04T02:56:56.979Z,0.50
2023-02-04T02:59:24.754Z,0.80
2023-02-04T03:01:55.669Z,0.60
2023-02-04T03:04:22.726Z,0.75
2023-02-04T03:06:49.915Z,1.42
2023-02-04T03:09:16.773Z,1.15
2023-02-04T03:11:43.390Z,1.95
2023-02-04T03:14:10.037Z,0.75
2023-02-04T03:16:37.917Z,0.60
2023-02-04T03:19:06.402Z,1.25
2023-02-04T03:21:33.451Z,0.77
2023-02-04T03:24:00.197Z,0.50
2023-02-04T03:26:27.121Z,0.85
2023-02-04T03:28:54.506Z,1.05
2023-02-04T03:31:21.476Z,0.90
2023-02-04T03:33:48.152Z,0.68
2023-02-04T03:36:14.804Z,1.42
2023-02-04T03:42:28.041Z,1.00
2023-02-04T03:44:54.575Z,0.68
2023-02-04T03:47:21.170Z,1.10
2023-02-04T03:49:47.786Z,1.23
2023-02-04T03:52:14.468Z,0.60
2023-02-04T03:54:41.147Z,1.90
2023-02-04T03:57:07.755Z,1.40
2023-02-04T03:59:34.341Z,0.98
2023-02-04T04:02:00.982Z,1.98
2023-02-04T04:04:27.741Z,0.70
2023-02-04T04:06:54.307Z,0.52
2023-02-04T04:09:21.277Z,0.60
2023-02-04T04:11:47.866Z,1.60
2023-02-04T04:14:14.508Z,0.98
2023-02-04T04:16:41.180Z,1.05
2023-02-04T04:19:07.854Z,0.93
2023-02-04T04:21:34.485Z,1.00
2023-02-04T04:24:01.101Z,0.55
2023-02-04T04:26:27.682Z,1.02
2023-02-04T04:28:54.357Z,0.68
2023-02-04T04:31:21.030Z,0.80
2023-02-04T04:33:47.678Z,1.25
2023-02-04T04:36:14.809Z,0.65
2023-02-04T04:38:41.343Z,0.93
2023-02-04T04:41:07.955Z,0.98
2023-02-04T04:43:34.560Z,1.45
2023-02-04T04:46:03.480Z,1.00
2023-02-04T04:48:30.055Z,0.98
2023-02-04T04:50:56.656Z,1.50
2023-02-04T04:53:23.201Z,0.63
2023-02-04T04:55:49.739Z,0.60
2023-02-04T04:58:16.285Z,1.27
2023-02-04T05:00:42.921Z,0.60
2023-02-04T05:03:09.545Z,1.58
2023-02-04T05:05:39.895Z,0.60
2023-02-04T05:08:12.864Z,0.63
2023-02-04T05:10:40.345Z,0.88
2023-02-04T05:13:07.048Z,0.95
2023-02-04T05:15:34.164Z,0.65
2023-02-04T05:18:00.855Z,1.30
2023-02-04T05:20:27.412Z,1.27
2023-02-04T05:22:55.905Z,0.80
2023-02-04T05:25:23.413Z,0.60
2023-02-04T05:27:50.045Z,0.90
2023-02-04T05:30:16.801Z,0.63
2023-02-04T05:32:43.378Z,0.85
2023-02-04T05:35:10.616Z,1.83
2023-02-04T05:37:37.334Z,0.70
2023-02-04T05:40:05.245Z,0.98
2023-02-04T05:42:31.885Z,0.73
2023-02-04T05:44:58.459Z,1.08
2023-02-04T05:47:25.064Z,0.98
2023-02-04T05:49:51.703Z,1.20
2023-02-04T05:52:18.322Z,0.50
2023-02-04T05:54:44.908Z,0.70
2023-02-04T05:57:11.607Z,0.85
2023-02-04T05:59:38.265Z,1.17
2023-02-04T06:02:04.863Z,0.82
2023-02-04T06:04:31.512Z,0.70
2023-02-04T06:06:58.147Z,1.17
2023-02-04T06:09:24.803Z,1.13
2023-02-04T06:11:51.561Z,1.10
2023-02-04T06:14:18.141Z,0.93
2023-02-04T06:16:44.804Z,0.73
2023-02-04T06:19:11.567Z,1.67
2023-02-04T06:21:38.158Z,1.60
2023-02-04T06:24:05.518Z,0.60
2023-02-04T06:26:32.141Z,0.60
2023-02-04T06:28:58.714Z,0.50
2023-02-04T06:31:25.361Z,1.17
2023-02-04T06:33:52.035Z,0.60
2023-02-04T06:36:18.655Z,0.60
2023-02-04T06:38:45.314Z,0.90
2023-02-04T06:41:11.956Z,0.73
2023-02-04T06:43:38.579Z,0.90
2023-02-04T06:46:05.486Z,1.15
2023-02-04T06:48:32.094Z,0.70
2023-02-04T06:50:58.711Z,0.68
2023-02-04T06:53:25.640Z,0.60
2023-02-04T06:55:52.721Z,0.80
2023-02-04T06:58:19.290Z,1.02
2023-02-04T07:00:45.859Z,0.57
2023-02-04T07:03:12.460Z,1.20
2023-02-04T07:05:39.064Z,1.00
2023-02-04T07:08:05.816Z,0.88
2023-02-04T07:10:33.136Z,0.40
2023-02-04T07:12:59.887Z,0.80
2023-02-04T07:15:26.582Z,3.13
2023-02-04T07:17:53.858Z,8.65
2023-02-04T07:20:20.603Z,7.28
2023-02-04T07:22:47.196Z,4.90
2023-02-04T07:25:15.953Z,6.30
2023-02-04T07:27:42.552Z,4.15
2023-02-04T07:30:10.554Z,9.50
2023-02-04T07:32:37.133Z,5.35
2023-02-04T07:35:03.993Z,3.88
2023-02-04T07:37:30.724Z,3.25
2023-02-04T07:39:57.286Z,5.43
2023-02-04T07:42:23.929Z,4.07
2023-02-04T07:44:50.491Z,8.38
2023-02-04T07:47:17.104Z,4.15
2023-02-04T07:49:43.679Z,7.30
2023-02-04T07:52:10.262Z,3.90
2023-02-04T07:54:36.875Z,3.58
2023-02-04T07:57:03.660Z,3.83
2023-02-04T07:59:30.227Z,5.47
2023-02-04T08:01:56.854Z,4.65
2023-02-04T08:04:23.516Z,4.63
2023-02-04T08:06:50.131Z,3.28
2023-02-04T08:09:16.734Z,5.63
2023-02-04T08:11:43.472Z,3.92
2023-02-04T08:14:10.109Z,3.92
2023-02-04T08:16:36.838Z,5.25
2023-02-04T08:19:03.509Z,5.07
2023-02-04T08:21:30.282Z,3.30
2023-02-04T08:23:56.904Z,3.00
2023-02-04T08:26:23.517Z,6.00
2023-02-04T08:28:50.261Z,3.78
2023-02-04T08:31:17.076Z,3.67
2023-02-04T08:33:43.716Z,4.13
2023-02-04T08:36:10.390Z,4.68
2023-02-04T08:38:36.997Z,3.90
2023-02-04T08:41:03.874Z,3.75
2023-02-04T08:43:30.711Z,3.80
2023-02-04T08:45:57.321Z,3.80
2023-02-04T08:48:23.915Z,3.70
2023-02-04T08:50:50.572Z,9.32
2023-02-04T08:53:17.244Z,4.05
2023-02-04T08:55:43.950Z,3.90
2023-02-04T08:58:10.561Z,4.78
2023-02-04T09:00:37.248Z,5.32
2023-02-04T09:03:03.947Z,4.82
2023-02-04T09:05:30.674Z,5.43
2023-02-04T09:07:57.272Z,2.63
2023-02-04T09:10:23.896Z,4.68
2023-02-04T09:12:55.856Z,4.30
2023-02-04T09:15:27.192Z,2.80
2023-02-04T09:17:55.780Z,4.32
2023-02-04T09:20:22.555Z,3.15
2023-02-04T09:22:50.289Z,2.80
2023-02-04T09:25:16.978Z,4.95
2023-02-04T09:27:43.678Z,3.47
2023-02-04T09:30:10.887Z,4.63
2023-02-04T09:32:37.522Z,5.20
2023-02-04T09:35:04.487Z,4.55
2023-02-04T09:37:31.118Z,3.38
2023-02-04T09:39:57.712Z,4.03
2023-02-04T09:42:26.163Z,2.45
2023-02-04T09:44:53.499Z,4.30
2023-02-04T09:47:23.758Z,5.00
2023-02-04T09:49:50.374Z,3.28
2023-02-04T09:52:18.997Z,1.92
2023-02-04T09:54:46.025Z,4.22
2023-02-04T09:57:19.622Z,3.10
2023-02-04T09:59:46.965Z,3.20
2023-02-04T10:02:26.763Z,3.50
2023-02-04T10:04:57.746Z,5.95
2023-02-04T10:07:26.678Z,3.17
2023-02-04T10:09:54.305Z,4.20
2023-02-04T10:12:21.640Z,2.85
2023-02-04T10:14:48.716Z,2.40
2023-02-04T10:17:20.656Z,2.97
2023-02-04T10:19:47.437Z,3.42
2023-02-04T10:22:20.070Z,4.10
2023-02-04T10:24:46.895Z,2.65
2023-02-04T10:27:17.568Z,3.60
2023-02-04T10:29:56.662Z,3.63
2023-02-04T10:32:33.642Z,3.55
2023-02-04T10:35:02.627Z,3.53
2023-02-04T10:37:30.738Z,4.15
2023-02-04T10:39:57.847Z,3.70
2023-02-04T10:42:29.760Z,5.30
2023-02-04T10:44:56.948Z,2.85
2023-02-04T10:47:26.435Z,3.42
2023-02-04T10:50:02.946Z,2.97
2023-02-04T10:55:07.001Z,12.73
2023-02-04T10:57:38.426Z,11.60
2023-02-04T11:00:10.820Z,13.77
2023-02-04T11:02:43.124Z,17.20
2023-02-04T11:05:17.532Z,41.92
2023-02-04T11:07:46.594Z,95.38
2023-02-04T11:10:19.052Z,115.75
2023-02-04T11:12:52.881Z,101.10
2023-02-04T11:15:47.440Z,80.75
2023-02-04T11:18:21.362Z,73.43
2023-02-04T11:20:49.715Z,49.75
2023-02-04T11:23:30.004Z,69.40
2023-02-04T11:26:19.110Z,67.70
2023-02-04T11:28:50.167Z,76.75
2023-02-04T11:31:20.045Z,64.55
2023-02-04T11:33:48.344Z,80.65
2023-02-04T11:36:16.096Z,74.43
2023-02-04T11:38:47.398Z,62.28
2023-02-04T11:41:24.822Z,76.32
2023-02-04T11:43:53.086Z,63.00
2023-02-04T11:46:20.589Z,66.40
2023-02-04T11:48:51.885Z,67.60
2023-02-04T11:51:23.456Z,58.67
2023-02-04T11:53:53.192Z,65.18
2023-02-04T11:56:21.609Z,58.30
2023-02-04T11:58:49.434Z,65.53
2023-02-04T12:01:25.024Z,54.10
2023-02-04T12:04:03.184Z,45.00
2023-02-04T12:06:34.933Z,51.42
2023-02-04T12:09:05.923Z,54.75
2023-02-04T12:11:33.056Z,60.35
2023-02-04T12:14:08.487Z,50.45
2023-02-04T12:16:51.297Z,55.35
2023-02-04T12:19:17.974Z,51.08
2023-02-04T12:21:45.357Z,43.22
2023-02-04T12:24:11.941Z,46.08
2023-02-04T12:26:38.741Z,43.17
2023-02-04T12:29:05.668Z,45.92
2023-02-04T12:31:33.745Z,42.10
2023-02-04T12:34:00.640Z,39.53
2023-02-04T12:36:29.510Z,45.40
2023-02-04T12:38:58.701Z,43.97
2023-02-04T12:41:26.230Z,40.15
2023-02-04T12:43:54.952Z,42.20
2023-02-04T12:46:22.014Z,43.95
2023-02-04T12:48:48.936Z,41.75
2023-02-04T12:51:16.204Z,35.63
2023-02-04T12:53:42.792Z,35.53
2023-02-04T12:56:09.475Z,42.78
2023-02-04T12:58:36.067Z,38.47
2023-02-04T13:01:04.427Z,34.20
2023-02-04T13:03:31.861Z,37.42
2023-02-04T13:05:59.013Z,34.92
2023-02-04T13:08:25.646Z,32.80
2023-02-04T13:10:52.369Z,33.90
2023-02-04T13:13:20.033Z,34.20
2023-02-04T13:15:47.289Z,38.47
2023-02-04T13:18:15.633Z,35.42
2023-02-04T13:20:44.034Z,30.17
2023-02-04T13:23:14.042Z,34.35
2023-02-04T13:25:40.782Z,33.33
2023-02-04T13:28:07.572Z,30.92
2023-02-04T13:30:34.535Z,32.28
2023-02-04T13:33:01.250Z,33.13
2023-02-04T13:35:27.921Z,30.70
2023-02-04T13:37:56.445Z,31.20
2023-02-04T13:40:23.277Z,32.47
2023-02-04T13:42:50.115Z,32.25
2023-02-04T13:45:18.835Z,25.02
2023-02-04T13:47:47.775Z,39.10
2023-02-04T13:50:16.010Z,29.75
2023-02-04T13:52:42.620Z,38.15
2023-02-04T13:55:09.319Z,31.08
2023-02-04T13:57:37.343Z,26.10
2023-02-04T14:00:05.267Z,29.52
2023-02-04T14:02:31.907Z,27.20
2023-02-04T14:04:58.752Z,25.65
2023-02-04T14:07:25.705Z,23.52
2023-02-04T14:09:52.455Z,21.00
2023-02-04T14:12:19.133Z,23.98
2023-02-04T14:14:45.767Z,27.23
2023-02-04T14:17:12.413Z,29.27
2023-02-04T14:19:39.075Z,21.73
2023-02-04T14:22:05.772Z,25.08
2023-02-04T14:24:32.588Z,22.05
2023-02-04T14:26:59.222Z,21.90
2023-02-04T14:29:25.852Z,22.02
2023-02-04T14:31:52.628Z,21.48
2023-02-04T14:34:19.242Z,20.90
2023-02-04T14:36:45.851Z,20.67
2023-02-04T14:39:12.554Z,18.67
2023-02-04T14:41:39.201Z,20.92
2023-02-04T14:44:05.797Z,22.15
2023-02-04T14:46:32.517Z,20.95
2023-02-04T14:48:59.217Z,23.52
2023-02-04T14:51:25.880Z,19.45
2023-02-04T14:53:52.698Z,21.88
2023-02-04T14:56:19.639Z,17.15
2023-02-04T14:58:46.286Z,20.35
2023-02-04T15:01:12.913Z,21.65
2023-02-04T15:03:39.529Z,18.77
2023-02-04T15:06:06.617Z,21.20
2023-02-04T15:08:33.282Z,18.35
2023-02-04T15:11:00.002Z,16.48
2023-02-04T15:13:27.871Z,20.27
2023-02-04T15:15:54.510Z,20.00
2023-02-04T15:18:21.404Z,15.15
2023-02-04T15:20:48.011Z,15.18
2023-02-04T15:23:15.114Z,17.20
2023-02-04T15:25:41.913Z,13.52
2023-02-04T15:28:10.342Z,16.80
2023-02-04T15:30:38.696Z,17.02
2023-02-04T15:33:05.465Z,16.23
2023-02-04T15:35:32.106Z,17.40
2023-02-04T15:37:58.834Z,15.43
2023-02-04T15:40:25.621Z,18.23
2023-02-04T15:42:53.180Z,15.25
2023-02-04T15:45:19.864Z,15.75
2023-02-04T15:47:46.507Z,21.33
2023-02-04T15:50:15.162Z,19.60
2023-02-04T15:52:41.906Z,17.10
2023-02-04T15:55:08.746Z,18.98
2023-02-04T15:57:36.533Z,15.75
2023-02-04T16:00:04.740Z,14.75
2023-02-04T16:02:31.678Z,18.20
2023-02-04T16:04:58.592Z,21.50
2023-02-04T16:07:25.264Z,17.13
2023-02-04T16:09:51.930Z,16.77
2023-02-04T16:12:18.574Z,16.27
2023-02-04T16:14:45.319Z,15.73
2023-02-04T16:17:12.056Z,17.23
2023-02-04T16:19:38.702Z,15.13
2023-02-04T16:22:06.222Z,14.45
2023-02-04T16:24:33.643Z,11.10
2023-02-04T16:27:00.248Z,145.57
2023-02-04T16:29:27.535Z,234.05
2023-02-04T16:31:54.270Z,191.70
2023-02-04T16:34:20.965Z,148.88
2023-02-04T16:36:47.706Z,136.00
2023-02-04T16:39:14.388Z,52.35
2023-02-04T16:41:41.037Z,40.33
2023-02-04T16:44:08.110Z,36.08
2023-02-04T16:49:02.336Z,40.47
2023-02-04T16:51:29.659Z,36.38
2023-02-04T16:53:57.024Z,44.50
2023-02-04T16:56:24.555Z,41.90
2023-02-04T16:58:51.609Z,38.72
2023-02-04T17:01:18.333Z,31.33
2023-02-04T17:03:45.048Z,43.78
2023-02-04T17:06:16.227Z,34.92
2023-02-04T17:08:43.041Z,39.20
2023-02-04T17:11:28.168Z,32.95
2023-02-04T17:13:59.567Z,33.80
2023-02-04T17:16:26.295Z,35.05
2023-02-04T17:18:55.002Z,35.30
2023-02-04T17:21:25.839Z,26.73
2023-02-04T17:23:52.895Z,34.05
2023-02-04T17:26:19.625Z,33.35
2023-02-04T17:28:46.346Z,28.05
2023-02-04T17:31:13.073Z,29.88
2023-02-04T17:33:40.300Z,28.73
2023-02-04T17:36:07.498Z,26.50
2023-02-04T17:38:34.441Z,28.83
2023-02-04T17:41:02.520Z,27.60
2023-02-04T17:43:29.241Z,26.83
2023-02-04T17:45:55.846Z,27.38
2023-02-04T17:48:22.492Z,26.52
2023-02-04T17:50:49.216Z,22.88
2023-02-04T17:53:15.910Z,26.10
2023-02-04T17:55:42.597Z,24.38
2023-02-04T17:58:37.601Z,30.88
2023-02-04T18:01:14.218Z,24.55
2023-02-04T18:03:42.627Z,20.73
2023-02-04T18:06:16.691Z,20.50
2023-02-04T18:08:43.303Z,20.83
2023-02-04T18:11:17.661Z,22.20
2023-02-04T18:13:44.372Z,21.10
2023-02-04T18:16:24.260Z,23.67
2023-02-04T18:18:54.418Z,20.33
2023-02-04T18:21:27.796Z,21.27
2023-02-04T18:23:54.338Z,23.05
2023-02-04T18:26:24.573Z,23.13
2023-02-04T18:28:52.039Z,19.27
2023-02-04T18:31:44.064Z,17.83
2023-02-04T18:34:21.232Z,19.83
2023-02-04T18:36:48.572Z,16.80
2023-02-04T18:39:22.913Z,20.63
2023-02-04T18:41:51.078Z,16.77
2023-02-04T18:44:36.316Z,17.50
2023-02-04T18:47:10.272Z,18.63
2023-02-04T18:49:41.144Z,15.98
2023-02-04T18:52:18.417Z,16.13
2023-02-04T18:54:51.902Z,17.38
2023-02-04T18:57:38.963Z,14.13
2023-02-04T19:00:13.592Z,20.88
2023-02-04T19:02:58.853Z,15.00
2023-02-04T19:05:39.784Z,16.80
2023-02-04T19:08:06.441Z,16.88
2023-02-04T19:10:42.450Z,14.13
2023-02-04T19:13:21.346Z,11.95
2023-02-04T19:16:22.753Z,16.95
2023-02-04T19:18:50.180Z,14.45
2023-02-04T19:21:21.945Z,12.90
2023-02-04T19:23:50.716Z,10.15
2023-02-04T19:26:38.691Z,12.57
2023-02-04T19:29:29.628Z,14.55
2023-02-04T19:32:00.256Z,13.10
2023-02-04T19:34:33.204Z,11.48
2023-02-04T19:37:00.208Z,10.60
2023-02-04T19:39:41.670Z,11.27
2023-02-04T19:42:24.525Z,11.60
2023-02-04T19:44:51.805Z,10.65
2023-02-04T19:47:42.500Z,10.65
2023-02-04T19:50:20.832Z,10.35
2023-02-04T19:52:48.832Z,9.32
2023-02-04T19:55:18.596Z,8.60
2023-02-04T19:57:48.865Z,7.70
2023-02-04T20:00:22.915Z,10.80
2023-02-04T20:02:49.540Z,11.65
2023-02-04T20:05:19.877Z,10.55
2023-02-04T20:07:46.701Z,11.55
2023-02-04T20:10:24.116Z,8.77
2023-02-04T20:12:55.681Z,10.07
2023-02-04T20:15:25.388Z,10.43
2023-02-04T20:17:52.507Z,8.80
2023-02-04T20:20:29.342Z,8.50
2023-02-04T20:22:58.258Z,7.93
2023-02-04T20:25:45.034Z,8.23
2023-02-04T20:28:40.133Z,8.25
2023-02-04T20:31:24.585Z,7.22
2023-02-04T20:33:54.412Z,8.30
2023-02-04T20:36:34.532Z,8.77
2023-02-04T20:39:37.432Z,12.70
2023-02-04T20:42:48.582Z,8.20
2023-02-04T20:45:34.176Z,7.78
2023-02-04T20:48:37.928Z,6.25
2023-02-04T20:51:14.807Z,5.97
2023-02-04T20:53:45.105Z,10.07
2023-02-04T20:56:22.463Z,8.35
2023-02-04T20:58:50.079Z,8.40
2023-02-04T21:01:29.784Z,6.53
2023-02-04T21:03:57.945Z,7.45
2023-02-04T21:06:27.792Z,7.15
2023-02-04T21:08:59.436Z,6.15
2023-02-04T21:11:26.432Z,7.20
2023-02-04T21:13:54.517Z,4.95
2023-02-04T21:16:21.763Z,6.07
2023-02-04T21:18:48.480Z,6.38
2023-02-04T21:21:15.475Z,6.40
2023-02-04T21:23:42.245Z,6.65
2023-02-04T21:26:08.942Z,7.38
2023-02-04T21:28:35.697Z,6.63
2023-02-04T21:31:03.007Z,7.07
2023-02-04T21:33:30.030Z,6.18
2023-02-04T21:35:56.698Z,4.88
2023-02-04T21:38:23.520Z,8.23
2023-02-04T21:40:50.238Z,11.65
2023-02-04T21:43:17.117Z,4.32
2023-02-04T21:45:43.767Z,6.55
2023-02-04T21:48:10.424Z,5.22
2023-02-04T21:50:40.436Z,5.25
2023-02-04T21:53:08.134Z,8.27
2023-02-04T21:55:35.820Z,7.75
2023-02-04T21:58:02.673Z,7.88
2023-02-04T22:00:29.384Z,5.93
2023-02-04T22:02:56.264Z,7.53
2023-02-04T22:05:24.580Z,7.30
2023-02-04T22:07:51.753Z,6.60
2023-02-04T22:10:21.957Z,7.10
2023-02-04T22:12:49.126Z,8.02
2023-02-04T22:15:16.813Z,7.63
2023-02-04T22:17:45.007Z,8.02
2023-02-04T22:20:13.294Z,8.05
2023-02-04T22:22:39.920Z,9.07
2023-02-04T22:25:06.942Z,5.18
2023-02-04T22:27:33.706Z,6.68
2023-02-04T22:30:03.190Z,9.10
2023-02-04T22:32:30.354Z,6.53
2023-02-04T22:34:57.296Z,4.63
2023-02-04T22:37:24.217Z,4.93
2023-02-04T22:39:50.976Z,4.90
2023-02-04T22:42:17.882Z,6.30
2023-02-04T22:44:44.550Z,6.03
2023-02-04T22:47:11.210Z,4.75
2023-02-04T22:49:37.986Z,4.82
2023-02-04T22:52:05.363Z,5.55
2023-02-04T22:54:32.502Z,4.78
2023-02-04T22:57:00.538Z,8.88
2023-02-04T22:59:27.963Z,4.85
2023-02-04T23:01:55.738Z,4.82
2023-02-04T23:04:23.083Z,5.35
2023-02-04T23:06:50.514Z,5.28
2023-02-04T23:09:17.486Z,5.63
2023-02-04T23:11:44.197Z,5.65
2023-02-04T23:14:10.996Z,7.82
2023-02-04T23:16:37.762Z,6.35
2023-02-04T23:19:04.993Z,5.32
2023-02-04T23:21:32.077Z,6.95
2023-02-04T23:23:59.363Z,4.57
2023-02-04T23:26:26.193Z,4.38
2023-02-04T23:28:52.992Z,4.90
2023-02-04T23:31:19.718Z,4.78
2023-02-04T23:33:49.258Z,4.50
2023-02-04T23:36:15.956Z,4.95
2023-02-04T23:38:42.841Z,2.60
2023-02-04T23:41:09.580Z,5.35
2023-02-04T23:43:38.998Z,3.50
2023-02-04T23:46:05.791Z,4.22
2023-02-04T23:48:32.577Z,3.85
2023-02-04T23:50:59.352Z,4.72
2023-02-04T23:53:25.972Z,3.70
2023-02-04T23:55:52.636Z,3.50
2023-02-04T23:58:19.516Z,4.85
